Time;durP1;ratioP1;P1;durP2;ratioP2;P2;SDS_P1;SDS_P2;PMS_P1;PMS_P2;Temp;Humidity;BMP_temperature;BMP_pressure;BME280_temperature;BME280_humidity;BME280_pressure;Samples;Min_cycle;Max_cycle;Signal;HPM_P1;HPM_P2
2021/09/01 00:00:59;;;;;;;1.77;1.17;;;20.90;72.90;;;;;;5155626;27;20049;-42
2021/09/01 00:03:25;;;;;;;2.50;1.02;;;20.90;72.90;;;;;;5136591;27;20051;-45
2021/09/01 00:05:50;;;;;;;1.63;1.02;;;20.90;72.90;;;;;;5155552;27;20049;-45
2021/09/01 00:08:16;;;;;;;1.33;1.17;;;20.90;72.90;;;;;;5154067;27;20103;-48
2021/09/01 00:10:42;;;;;;;1.40;1.23;;;20.90;72.90;;;;;;5155142;27;20367;-45
2021/09/01 00:13:08;;;;;;;1.50;1.05;;;20.90;72.90;;;;;;5155386;27;20045;-47
2021/09/01 00:15:34;;;;;;;2.58;1.38;;;20.90;72.90;;;;;;5155423;27;20047;-46
2021/09/01 00:18:00;;;;;;;3.17;1.42;;;20.90;72.90;;;;;;5155277;27;20042;-47
2021/09/01 00:20:26;;;;;;;1.58;1.05;;;20.90;72.90;;;;;;5155371;27;20411;-42
2021/09/01 00:22:55;;;;;;;2.05;1.27;;;20.90;72.90;;;;;;5154326;27;20051;-43
2021/09/01 00:25:22;;;;;;;2.35;1.23;;;20.90;72.90;;;;;;5154961;27;20047;-44
2021/09/01 00:27:48;;;;;;;2.20;1.20;;;20.90;72.90;;;;;;5155269;27;20042;-42
2021/09/01 00:30:13;;;;;;;1.75;1.30;;;20.90;72.90;;;;;;5155181;27;20406;-43
2021/09/01 00:32:39;;;;;;;1.65;1.13;;;20.90;72.90;;;;;;5155265;27;20054;-40
2021/09/01 00:35:06;;;;;;;1.25;1.10;;;20.90;72.90;;;;;;5154870;27;20035;-41
2021/09/01 00:37:32;;;;;;;1.60;1.23;;;20.90;72.90;;;;;;5154751;27;20043;-42
2021/09/01 00:39:57;;;;;;;3.08;1.63;;;20.90;72.90;;;;;;5154382;27;20095;-40
2021/09/01 00:42:23;;;;;;;3.33;1.20;;;20.80;72.90;;;;;;5154854;27;20042;-42
2021/09/01 00:44:49;;;;;;;1.40;1.00;;;20.90;72.90;;;;;;5155013;27;20405;-40
2021/09/01 00:47:21;;;;;;;1.83;1.20;;;20.90;72.90;;;;;;5136095;27;20054;-40
2021/09/01 00:49:46;;;;;;;1.92;1.33;;;20.90;72.90;;;;;;5154844;27;20388;-40
2021/09/01 00:52:13;;;;;;;2.13;1.10;;;20.90;72.90;;;;;;5154492;27;20046;-44
2021/09/01 00:54:40;;;;;;;1.73;1.20;;;20.80;72.90;;;;;;5154106;27;20046;-43
2021/09/01 00:57:07;;;;;;;2.08;1.30;;;20.90;72.90;;;;;;5154756;27;20050;-42
2021/09/01 00:59:37;;;;;;;1.92;1.20;;;20.80;72.90;;;;;;5154458;27;20064;-39
2021/09/01 01:02:03;;;;;;;1.15;1.05;;;20.90;73.00;;;;;;5154472;27;20042;-38
2021/09/01 01:04:34;;;;;;;1.13;1.02;;;20.80;72.90;;;;;;5136040;27;20494;-40
2021/09/01 01:07:02;;;;;;;1.65;1.10;;;20.90;73.00;;;;;;5135613;27;20182;-39
2021/09/01 01:09:28;;;;;;;3.25;1.73;;;20.90;73.00;;;;;;5135758;27;20050;-39
2021/09/01 01:12:13;;;;;;;1.67;1.33;;;20.90;73.00;;;;;;5154075;27;20063;-39
2021/09/01 01:14:42;;;;;;;1.30;1.20;;;20.90;73.00;;;;;;5154158;27;20072;-41
2021/09/01 01:17:10;;;;;;;2.33;1.13;;;20.80;72.90;;;;;;5154634;27;20047;-38
2021/09/01 01:19:46;;;;;;;1.83;1.20;;;20.80;72.90;;;;;;5154660;27;20042;-39
2021/09/01 01:22:16;;;;;;;2.42;1.30;;;20.90;73.00;;;;;;5154331;27;20391;-40
2021/09/01 01:24:56;;;;;;;1.67;1.02;;;20.80;72.90;;;;;;5154199;27;20043;-38
2021/09/01 01:27:32;;;;;;;1.38;1.02;;;20.80;73.00;;;;;;5135149;27;20064;-39
2021/09/01 01:30:03;;;;;;;1.58;1.25;;;20.80;73.00;;;;;;5153961;27;20136;-41
2021/09/01 01:32:29;;;;;;;2.00;1.13;;;20.80;73.00;;;;;;5135282;27;20486;-44
2021/09/01 01:34:55;;;;;;;1.23;1.13;;;20.80;73.00;;;;;;5154055;27;20049;-42
2021/09/01 01:37:20;;;;;;;1.85;1.23;;;20.90;73.00;;;;;;5153504;27;20494;-44
2021/09/01 01:39:46;;;;;;;2.13;1.30;;;20.80;73.00;;;;;;5135329;27;20054;-43
2021/09/01 01:42:12;;;;;;;1.20;1.00;;;20.80;73.00;;;;;;5153369;27;20129;-43
2021/09/01 01:44:37;;;;;;;1.42;1.10;;;20.80;73.00;;;;;;5154019;27;20410;-42
2021/09/01 01:47:03;;;;;;;1.20;1.10;;;20.80;73.00;;;;;;5153939;27;20038;-49
2021/09/01 01:49:29;;;;;;;1.45;1.10;;;20.80;73.00;;;;;;5153722;27;20478;-43
2021/09/01 01:51:55;;;;;;;1.58;1.20;;;20.80;73.00;;;;;;5153739;27;20535;-45
2021/09/01 01:54:21;;;;;;;1.33;1.23;;;20.80;73.00;;;;;;5153926;27;20064;-44
2021/09/01 01:56:46;;;;;;;3.13;1.20;;;20.80;73.00;;;;;;5153842;27;20045;-40
2021/09/01 01:59:12;;;;;;;1.35;1.17;;;20.80;73.00;;;;;;5153104;27;20043;-47
2021/09/01 02:01:37;;;;;;;1.52;1.15;;;20.90;73.00;;;;;;5153419;27;20119;-40
2021/09/01 02:04:03;;;;;;;1.90;1.30;;;20.80;73.00;;;;;;5153718;27;20112;-40
2021/09/01 02:06:29;;;;;;;1.10;1.00;;;20.80;73.00;;;;;;5134865;27;20495;-39
2021/09/01 02:08:54;;;;;;;1.45;1.02;;;20.80;73.00;;;;;;5153960;27;20038;-41
2021/09/01 02:11:20;;;;;;;1.70;1.20;;;20.80;73.10;;;;;;5153622;27;20096;-45
2021/09/01 02:13:46;;;;;;;1.08;0.90;;;20.80;73.00;;;;;;5153162;27;20046;-39
2021/09/01 02:16:11;;;;;;;2.20;1.30;;;20.80;73.00;;;;;;5153302;27;20058;-39
2021/09/01 02:18:37;;;;;;;1.77;1.20;;;20.80;73.00;;;;;;5153346;27;20035;-40
2021/09/01 02:21:03;;;;;;;1.10;0.90;;;20.80;73.00;;;;;;5153557;27;20082;-42
2021/09/01 02:23:28;;;;;;;1.80;1.02;;;20.80;73.00;;;;;;5153666;27;20119;-45
2021/09/01 02:25:54;;;;;;;1.85;1.20;;;20.80;73.10;;;;;;5153504;27;20039;-39
2021/09/01 02:28:20;;;;;;;1.27;1.10;;;20.80;73.10;;;;;;5153342;27;20043;-41
2021/09/01 02:30:45;;;;;;;2.22;1.13;;;20.80;73.10;;;;;;5152975;27;20035;-43
2021/09/01 02:33:11;;;;;;;1.67;1.17;;;20.80;73.10;;;;;;5153322;27;20035;-38
2021/09/01 02:35:36;;;;;;;2.33;1.35;;;20.80;73.10;;;;;;5134904;27;20047;-38
2021/09/01 02:38:04;;;;;;;1.67;1.27;;;20.80;73.10;;;;;;5153303;27;20082;-42
2021/09/01 02:40:30;;;;;;;2.75;1.35;;;20.80;73.10;;;;;;5153289;27;20047;-40
2021/09/01 02:42:55;;;;;;;1.40;1.05;;;20.80;73.10;;;;;;5153308;27;20091;-43
2021/09/01 02:45:21;;;;;;;1.50;1.25;;;20.80;73.10;;;;;;5152800;27;20039;-43
2021/09/01 02:47:47;;;;;;;1.23;1.13;;;20.80;73.10;;;;;;5134868;27;20079;-46
2021/09/01 02:50:14;;;;;;;1.80;1.40;;;20.80;73.10;;;;;;5156627;27;20046;-47
2021/09/01 02:52:43;;;;;;;1.85;1.00;;;20.80;73.10;;;;;;5156832;27;20074;-44
2021/09/01 02:55:09;;;;;;;1.40;1.08;;;20.80;73.10;;;;;;5156958;27;20043;-45
2021/09/01 02:57:35;;;;;;;0.95;0.80;;;20.80;73.10;;;;;;5156714;27;20047;-45
2021/09/01 03:00:01;;;;;;;1.58;1.25;;;20.80;73.10;;;;;;5156876;27;20049;-48
2021/09/01 03:02:27;;;;;;;1.60;1.17;;;20.80;73.10;;;;;;5156076;27;20038;-45
2021/09/01 03:04:52;;;;;;;1.52;1.10;;;20.80;73.10;;;;;;5156537;27;20031;-44
2021/09/01 03:07:18;;;;;;;1.75;1.35;;;20.80;73.10;;;;;;5156842;27;20042;-46
2021/09/01 03:09:43;;;;;;;2.85;1.30;;;20.80;73.10;;;;;;5156631;27;20042;-44
2021/09/01 03:12:09;;;;;;;1.42;1.20;;;20.80;73.10;;;;;;5156644;27;20066;-43
2021/09/01 03:14:35;;;;;;;1.52;1.00;;;20.80;73.10;;;;;;5156383;27;20050;-44
2021/09/01 03:17:00;;;;;;;2.20;1.40;;;20.80;73.10;;;;;;5156010;27;20108;-43
2021/09/01 03:19:26;;;;;;;1.20;1.10;;;20.80;73.10;;;;;;5156468;27;20035;-42
2021/09/01 03:21:52;;;;;;;1.90;1.02;;;20.80;73.80;;;;;;5156274;27;20083;-40
2021/09/01 03:24:18;;;;;;;1.40;1.13;;;20.80;73.20;;;;;;5156586;27;20046;-41
2021/09/01 03:26:44;;;;;;;1.13;0.82;;;20.80;73.10;;;;;;5156452;27;20043;-41
2021/09/01 03:29:09;;;;;;;1.73;0.98;;;20.80;73.10;;;;;;5156638;27;20099;-43
2021/09/01 03:31:35;;;;;;;1.85;1.05;;;20.80;73.10;;;;;;5156757;27;20049;-43
2021/09/01 03:34:00;;;;;;;1.60;1.23;;;20.80;73.10;;;;;;5137185;27;20046;-44
2021/09/01 03:36:27;;;;;;;3.47;1.20;;;20.80;73.10;;;;;;5156030;27;20104;-43
2021/09/01 03:38:53;;;;;;;1.02;0.93;;;20.80;73.10;;;;;;5156344;27;20039;-45
2021/09/01 03:41:19;;;;;;;1.65;0.95;;;20.80;73.20;;;;;;5155916;27;20045;-40
2021/09/01 03:43:45;;;;;;;1.42;1.05;;;20.80;73.10;;;;;;5155986;27;20091;-48
2021/09/01 03:46:10;;;;;;;1.52;1.17;;;20.70;73.10;;;;;;5156056;27;20436;-39
2021/09/01 03:48:36;;;;;;;2.03;1.58;;;20.80;73.20;;;;;;5155482;27;20106;-46
2021/09/01 03:51:02;;;;;;;1.25;1.00;;;20.70;73.10;;;;;;5155963;27;20225;-44
2021/09/01 03:53:28;;;;;;;1.55;1.02;;;20.80;73.20;;;;;;5155959;27;20372;-45
2021/09/01 03:55:53;;;;;;;2.05;1.10;;;20.80;73.20;;;;;;5155696;27;20068;-41
2021/09/01 03:58:19;;;;;;;1.45;1.08;;;20.70;73.10;;;;;;5155654;27;20046;-42
2021/09/01 04:00:45;;;;;;;1.77;1.10;;;20.70;73.20;;;;;;5155215;27;20061;-43
2021/09/01 04:03:11;;;;;;;1.65;1.20;;;20.80;73.20;;;;;;5155491;27;20152;-44
2021/09/01 04:05:37;;;;;;;1.83;1.13;;;20.70;73.20;;;;;;5155118;27;20049;-42
2021/09/01 04:08:03;;;;;;;1.38;0.90;;;20.80;73.20;;;;;;5137055;27;20046;-42
2021/09/01 04:10:28;;;;;;;2.45;1.20;;;20.70;73.10;;;;;;5155456;27;20102;-43
2021/09/01 04:12:54;;;;;;;1.90;1.00;;;20.80;73.20;;;;;;5155752;27;20042;-44
2021/09/01 04:15:20;;;;;;;1.17;1.00;;;20.70;73.10;;;;;;5155121;27;20063;-42
2021/09/01 04:17:45;;;;;;;1.30;0.95;;;20.70;73.10;;;;;;5155282;27;20090;-45
2021/09/01 04:20:11;;;;;;;1.63;1.05;;;20.70;73.10;;;;;;5154846;27;20043;-43
2021/09/01 04:22:37;;;;;;;1.38;1.00;;;20.70;73.10;;;;;;5154818;27;20035;-42
2021/09/01 04:25:04;;;;;;;1.73;0.98;;;20.70;73.10;;;;;;5155036;27;20042;-42
2021/09/01 04:27:30;;;;;;;1.08;0.98;;;20.70;73.10;;;;;;5155140;27;20490;-45
2021/09/01 04:29:56;;;;;;;1.50;1.00;;;20.70;73.10;;;;;;5155123;27;20118;-42
2021/09/01 04:32:21;;;;;;;1.02;0.95;;;20.70;73.10;;;;;;5154993;27;20039;-41
2021/09/01 04:34:47;;;;;;;1.77;0.80;;;20.70;73.10;;;;;;5154767;27;20091;-42
2021/09/01 04:37:13;;;;;;;1.92;1.05;;;20.70;73.10;;;;;;5135351;27;20118;-42
2021/09/01 04:39:39;;;;;;;2.13;1.00;;;20.70;73.10;;;;;;5154695;27;20449;-39
2021/09/01 04:42:05;;;;;;;1.23;0.98;;;20.70;73.00;;;;;;5136010;27;20054;-39
2021/09/01 04:44:32;;;;;;;1.33;1.00;;;20.70;73.10;;;;;;5154574;27;20039;-39
2021/09/01 04:46:58;;;;;;;1.33;1.08;;;20.70;73.10;;;;;;5154086;27;20133;-38
2021/09/01 04:49:23;;;;;;;1.77;1.10;;;20.70;73.10;;;;;;5153846;27;20113;-39
2021/09/01 04:51:49;;;;;;;1.10;1.00;;;20.70;73.10;;;;;;5153171;27;20563;-37
2021/09/01 04:54:15;;;;;;;1.52;1.10;;;20.70;73.10;;;;;;5153459;27;20038;-39
2021/09/01 04:56:40;;;;;;;2.17;1.15;;;20.70;73.10;;;;;;5154027;27;20086;-41
2021/09/01 04:59:06;;;;;;;1.50;1.00;;;20.60;73.10;;;;;;5154207;27;20506;-38
2021/09/01 05:01:31;;;;;;;1.17;0.90;;;20.70;73.10;;;;;;5154096;27;20474;-42
2021/09/01 05:03:57;;;;;;;1.20;0.93;;;20.70;73.10;;;;;;5154330;27;20078;-45
2021/09/01 05:06:26;;;;;;;1.42;0.90;;;20.70;73.10;;;;;;5154464;27;20038;-41
2021/09/01 05:08:52;;;;;;;1.42;1.30;;;20.70;73.10;;;;;;5135368;27;20050;-44
2021/09/01 05:11:18;;;;;;;1.20;0.98;;;20.70;73.10;;;;;;5153758;27;20558;-44
2021/09/01 05:13:43;;;;;;;1.27;1.17;;;20.70;73.10;;;;;;5154718;27;20046;-42
2021/09/01 05:16:09;;;;;;;1.70;1.10;;;20.70;73.10;;;;;;5154429;27;20414;-43
2021/09/01 05:18:35;;;;;;;1.30;1.02;;;20.70;73.10;;;;;;5135717;27;20187;-44
2021/09/01 05:21:03;;;;;;;1.23;1.00;;;20.70;73.10;;;;;;5135245;27;20043;-43
2021/09/01 05:23:32;;;;;;;1.48;1.20;;;20.70;73.10;;;;;;5153627;27;20514;-43
2021/09/01 05:25:59;;;;;;;6.15;1.38;;;20.70;73.10;;;;;;5154022;27;20563;-43
2021/09/01 05:28:37;;;;;;;3.60;1.50;;;20.70;73.10;;;;;;5154089;27;20107;-44
2021/09/01 05:31:05;;;;;;;3.35;1.52;;;20.70;73.10;;;;;;5154180;27;20050;-41
2021/09/01 05:33:37;;;;;;;9.52;1.60;;;20.70;73.10;;;;;;5154020;27;20408;-45
2021/09/01 05:36:06;;;;;;;3.92;1.52;;;20.70;73.10;;;;;;5154416;27;20057;-40
2021/09/01 05:38:33;;;;;;;3.53;1.25;;;20.70;73.10;;;;;;5154281;27;20068;-42
2021/09/01 05:41:00;;;;;;;4.88;1.35;;;20.70;73.10;;;;;;5154006;27;20047;-43
2021/09/01 05:43:26;;;;;;;2.30;1.10;;;20.70;73.10;;;;;;5135914;27;20078;-40
2021/09/01 05:45:52;;;;;;;3.22;1.40;;;20.70;73.10;;;;;;5154169;27;20077;-42
2021/09/01 05:48:22;;;;;;;1.88;1.20;;;20.70;73.10;;;;;;5153792;27;20482;-41
2021/09/01 05:50:56;;;;;;;1.83;1.10;;;20.70;73.10;;;;;;5153234;27;20490;-44
2021/09/01 05:53:22;;;;;;;2.35;1.50;;;20.70;73.10;;;;;;5154092;27;20051;-47
2021/09/01 05:55:51;;;;;;;2.80;1.48;;;20.70;73.10;;;;;;5153195;27;20034;-45
2021/09/01 05:58:19;;;;;;;3.15;1.30;;;20.70;73.10;;;;;;5153964;27;20099;-46
2021/09/01 06:00:57;;;;;;;2.90;1.25;;;20.70;73.10;;;;;;5153863;27;20058;-50
2021/09/01 06:03:33;;;;;;;2.83;1.13;;;20.70;73.10;;;;;;5153942;27;20122;-44
2021/09/01 06:06:01;;;;;;;2.40;1.23;;;20.70;73.10;;;;;;5154008;27;20117;-45
2021/09/01 06:08:32;;;;;;;3.78;1.30;;;20.70;73.10;;;;;;5153766;27;20046;-44
2021/09/01 06:11:00;;;;;;;1.33;1.20;;;20.70;73.10;;;;;;5153091;27;20114;-47
2021/09/01 06:13:26;;;;;;;3.97;1.30;;;20.70;73.10;;;;;;5153882;27;20107;-44
2021/09/01 06:15:52;;;;;;;2.53;1.40;;;20.70;73.10;;;;;;5153194;27;20522;-43
2021/09/01 06:18:18;;;;;;;1.17;1.00;;;20.70;73.10;;;;;;5153167;27;20100;-40
2021/09/01 06:20:44;;;;;;;1.80;1.27;;;20.70;73.10;;;;;;5153601;27;20046;-45
2021/09/01 06:23:10;;;;;;;2.67;1.30;;;20.70;73.10;;;;;;5137331;27;20478;-47
2021/09/01 06:25:36;;;;;;;2.63;1.52;;;20.70;73.10;;;;;;5157535;27;20049;-44
2021/09/01 06:28:03;;;;;;;2.90;1.27;;;20.60;73.10;;;;;;5156935;27;20038;-42
2021/09/01 06:30:29;;;;;;;2.13;1.10;;;20.70;73.10;;;;;;5157054;27;20125;-47
2021/09/01 06:32:55;;;;;;;1.92;1.23;;;20.70;73.10;;;;;;5157044;27;20043;-39
2021/09/01 06:35:21;;;;;;;1.65;1.00;;;20.70;73.10;;;;;;5138398;27;20133;-44
2021/09/01 06:37:47;;;;;;;1.42;1.00;;;20.70;73.10;;;;;;5157306;27;20046;-44
2021/09/01 06:40:14;;;;;;;1.80;1.08;;;20.70;73.10;;;;;;5157082;27;20042;-47
2021/09/01 06:42:40;;;;;;;1.40;1.00;;;20.60;73.00;;;;;;5156622;27;20034;-47
2021/09/01 06:45:07;;;;;;;2.15;1.10;;;20.70;73.10;;;;;;5156894;27;20043;-42
2021/09/01 06:47:45;;;;;;;1.50;1.08;;;20.70;73.10;;;;;;5156621;27;20042;-44
2021/09/01 06:50:12;;;;;;;1.63;1.00;;;20.70;73.10;;;;;;5157106;27;20039;-45
2021/09/01 06:52:39;;;;;;;1.50;1.13;;;20.70;73.10;;;;;;5138060;27;20038;-45
2021/09/01 06:55:05;;;;;;;1.67;1.20;;;20.70;73.20;;;;;;5157037;27;20038;-45
2021/09/01 06:57:31;;;;;;;2.17;1.10;;;20.70;73.10;;;;;;5137006;27;20087;-40
2021/09/01 06:59:57;;;;;;;2.75;1.20;;;20.70;73.10;;;;;;5156123;27;20042;-46
2021/09/01 07:02:22;;;;;;;1.58;1.20;;;20.70;73.10;;;;;;5156402;27;20061;-38
2021/09/01 07:04:48;;;;;;;0.93;0.73;;;20.60;73.00;;;;;;5137674;27;20041;-37
2021/09/01 07:07:13;;;;;;;2.30;1.08;;;20.70;73.10;;;;;;5155937;27;20046;-39
2021/09/01 07:09:39;;;;;;;2.40;1.02;;;20.70;73.10;;;;;;5156434;27;20050;-42
2021/09/01 07:12:05;;;;;;;2.67;1.10;;;20.60;73.00;;;;;;5156311;27;20420;-40
2021/09/01 07:14:30;;;;;;;2.03;1.20;;;20.60;73.00;;;;;;5155892;27;20050;-38
2021/09/01 07:16:56;;;;;;;2.13;1.30;;;20.60;73.00;;;;;;5156303;27;20056;-39
2021/09/01 07:19:22;;;;;;;2.05;1.20;;;20.70;73.20;;;;;;5137323;27;20055;-40
2021/09/01 07:21:47;;;;;;;1.58;1.10;;;20.70;73.10;;;;;;5137569;27;20482;-37
2021/09/01 07:24:13;;;;;;;2.45;1.25;;;20.70;73.10;;;;;;5156308;27;20031;-45
2021/09/01 07:26:38;;;;;;;1.35;1.08;;;20.70;73.10;;;;;;5156061;27;20524;-38
2021/09/01 07:29:04;;;;;;;1.65;1.23;;;20.70;73.70;;;;;;5148052;27;20076;-37
2021/09/01 07:31:30;;;;;;;1.00;0.85;;;20.70;73.10;;;;;;5144099;27;20042;-40
2021/09/01 07:33:59;;;;;;;1.42;1.08;;;20.60;73.00;;;;;;5134405;27;20391;-38
2021/09/01 07:36:25;;;;;;;2.90;1.33;;;20.70;73.10;;;;;;5116455;27;20054;-38
2021/09/01 07:38:51;;;;;;;1.90;1.35;;;20.60;73.00;;;;;;5135008;27;20529;-42
2021/09/01 07:41:19;;;;;;;1.95;1.10;;;20.70;73.10;;;;;;5134838;27;20047;-42
2021/09/01 07:43:45;;;;;;;7.40;2.60;;;20.70;73.10;;;;;;5134239;27;20123;-41
2021/09/01 07:46:11;;;;;;;6.82;2.67;;;20.60;72.80;;;;;;5134490;27;20120;-39
2021/09/01 07:48:36;;;;;;;6.00;2.50;;;20.60;72.80;;;;;;5134594;27;20047;-43
2021/09/01 07:51:03;;;;;;;7.30;2.67;;;20.60;72.80;;;;;;5114532;27;20055;-42
2021/09/01 07:53:29;;;;;;;6.63;2.05;;;20.60;72.80;;;;;;5134626;27;20546;-38
2021/09/01 07:55:54;;;;;;;5.53;2.25;;;20.60;72.70;;;;;;5140378;27;20122;-39
2021/09/01 07:58:20;;;;;;;5.75;2.40;;;20.60;73.40;;;;;;5155705;27;20246;-38
2021/09/01 08:00:46;;;;;;;8.68;2.60;;;20.60;72.70;;;;;;5154663;27;20076;-41
2021/09/01 08:03:12;;;;;;;4.82;2.33;;;20.60;72.80;;;;;;5153088;27;20051;-42
2021/09/01 08:05:37;;;;;;;5.78;3.03;;;20.60;73.50;;;;;;5155276;27;20152;-39
2021/09/01 08:08:04;;;;;;;4.57;2.40;;;20.60;73.50;;;;;;5154750;27;20046;-41
2021/09/01 08:10:30;;;;;;;5.05;1.90;;;20.60;72.80;;;;;;5154807;27;20129;-40
2021/09/01 08:12:56;;;;;;;5.07;2.25;;;20.60;72.90;;;;;;5135604;27;20451;-45
2021/09/01 08:15:22;;;;;;;4.60;2.25;;;20.50;72.80;;;;;;5154341;27;20137;-42
2021/09/01 08:17:48;;;;;;;5.60;2.05;;;20.60;72.90;;;;;;5154599;27;20054;-42
2021/09/01 08:20:14;;;;;;;5.65;2.40;;;20.60;72.90;;;;;;5154278;27;20047;-43
2021/09/01 08:22:40;;;;;;;4.75;2.20;;;20.60;72.90;;;;;;5153401;27;20608;-43
2021/09/01 08:25:06;;;;;;;5.35;2.47;;;20.60;72.90;;;;;;5153312;27;20070;-43
2021/09/01 08:27:32;;;;;;;3.53;2.10;;;20.60;72.90;;;;;;5153750;27;20047;-42
2021/09/01 08:29:58;;;;;;;4.20;2.00;;;20.60;72.90;;;;;;5153977;27;20039;-43
2021/09/01 08:32:24;;;;;;;4.25;2.30;;;20.60;72.90;;;;;;5153969;27;20050;-45
2021/09/01 08:34:49;;;;;;;5.05;2.20;;;20.60;72.90;;;;;;5154539;27;20114;-42
2021/09/01 08:37:16;;;;;;;4.10;2.33;;;20.70;72.90;;;;;;5153963;27;20031;-44
2021/09/01 08:39:41;;;;;;;3.17;2.00;;;20.60;72.90;;;;;;5154900;27;20059;-45
2021/09/01 08:42:07;;;;;;;4.82;2.10;;;20.60;72.90;;;;;;5135065;27;20486;-43
2021/09/01 08:44:33;;;;;;;2.83;1.98;;;20.60;72.90;;;;;;5153742;27;20034;-43
2021/09/01 08:47:00;;;;;;;3.00;1.80;;;20.60;72.90;;;;;;5154445;27;20459;-41
2021/09/01 08:49:28;;;;;;;3.33;2.10;;;20.70;72.90;;;;;;5153961;27;20103;-43
2021/09/01 08:51:54;;;;;;;4.35;2.30;;;20.70;72.90;;;;;;5152894;27;20050;-43
2021/09/01 08:54:20;;;;;;;2.72;1.73;;;20.60;72.90;;;;;;5154641;27;20041;-43
2021/09/01 08:56:45;;;;;;;4.68;2.20;;;20.60;72.90;;;;;;5154358;27;20042;-44
2021/09/01 08:59:11;;;;;;;4.97;2.30;;;20.60;72.90;;;;;;5154442;27;20065;-42
2021/09/01 09:01:39;;;;;;;2.83;2.03;;;20.60;72.90;;;;;;5154065;27;20043;-40
2021/09/01 09:04:06;;;;;;;3.17;1.90;;;20.60;72.90;;;;;;5138791;27;20121;-42
2021/09/01 09:06:46;;;;;;;3.45;1.90;;;20.60;72.90;;;;;;5154039;27;20108;-43
2021/09/01 09:09:13;;;;;;;4.20;2.35;;;20.70;72.90;;;;;;5154415;27;20045;-44
2021/09/01 09:11:39;;;;;;;4.22;1.90;;;20.70;72.90;;;;;;5154383;27;20050;-42
2021/09/01 09:14:21;;;;;;;4.32;2.20;;;20.60;72.90;;;;;;5153632;27;20034;-43
2021/09/01 09:16:58;;;;;;;2.85;2.03;;;20.70;72.90;;;;;;5153847;27;20046;-47
2021/09/01 09:19:40;;;;;;;3.15;1.70;;;20.60;72.90;;;;;;5150756;27;20535;-43
2021/09/01 09:22:06;;;;;;;4.20;1.85;;;20.70;72.90;;;;;;5153945;27;20126;-41
2021/09/01 09:24:33;;;;;;;5.10;1.92;;;20.70;72.90;;;;;;5153148;27;20062;-38
2021/09/01 09:26:59;;;;;;;2.90;2.10;;;20.70;72.90;;;;;;5153238;27;20047;-40
2021/09/01 09:29:29;;;;;;;2.08;1.33;;;20.70;72.90;;;;;;5153726;27;20054;-42
2021/09/01 09:32:10;;;;;;;3.92;1.83;;;20.70;72.90;;;;;;5153651;27;20089;-39
2021/09/01 09:34:41;;;;;;;2.97;1.58;;;20.70;72.90;;;;;;5136575;27;20455;-42
2021/09/01 09:37:08;;;;;;;2.72;1.80;;;20.60;72.90;;;;;;5152895;27;20042;-42
2021/09/01 09:39:48;;;;;;;3.45;2.10;;;20.60;72.90;;;;;;5152977;27;20049;-44
2021/09/01 09:42:32;;;;;;;10.40;3.30;;;20.70;72.80;;;;;;5153159;27;20390;-38
2021/09/01 09:44:59;;;;;;;16.90;3.40;;;20.70;72.40;;;;;;5150574;27;20045;-42
2021/09/01 09:47:47;;;;;;;11.82;3.38;;;20.60;72.40;;;;;;5151505;27;20043;-44
2021/09/01 09:50:14;;;;;;;6.68;3.67;;;20.60;72.40;;;;;;5150408;27;20455;-40
2021/09/01 09:52:39;;;;;;;13.35;4.15;;;20.60;72.50;;;;;;5152282;27;20099;-39
2021/09/01 09:55:10;;;;;;;7.95;3.13;;;20.60;72.60;;;;;;5153174;27;20490;-43
2021/09/01 09:57:45;;;;;;;7.25;3.00;;;20.60;72.60;;;;;;5153870;27;20402;-40
2021/09/01 10:00:11;;;;;;;6.95;3.08;;;20.60;72.60;;;;;;5135751;27;20479;-42
2021/09/01 10:02:41;;;;;;;6.75;3.53;;;20.60;72.60;;;;;;5157163;27;20096;-40
2021/09/01 10:05:14;;;;;;;7.72;3.20;;;20.60;72.60;;;;;;5138197;27;20039;-43
2021/09/01 10:07:40;;;;;;;5.57;2.95;;;20.60;72.60;;;;;;5134566;27;20058;-42
2021/09/01 10:10:08;;;;;;;10.18;2.83;;;20.60;72.70;;;;;;5155521;27;20035;-40
2021/09/01 10:12:40;;;;;;;8.43;3.55;;;20.60;72.70;;;;;;5157167;27;20031;-41
2021/09/01 10:15:18;;;;;;;6.97;2.83;;;20.60;72.70;;;;;;5153974;27;20402;-39
2021/09/01 10:17:46;;;;;;;7.03;2.70;;;20.70;72.70;;;;;;5156348;27;20093;-38
2021/09/01 10:20:18;;;;;;;7.63;2.95;;;20.60;72.70;;;;;;5153874;27;20091;-38
2021/09/01 10:22:43;;;;;;;5.75;2.90;;;20.60;72.70;;;;;;5156405;27;20050;-37
2021/09/01 10:25:29;;;;;;;4.53;2.72;;;20.70;72.80;;;;;;5156383;27;20030;-40
2021/09/01 10:28:30;;;;;;;6.97;2.67;;;20.70;72.80;;;;;;5154123;27;20076;-40
2021/09/01 10:31:17;;;;;;;7.60;2.95;;;20.70;72.70;;;;;;5154603;27;20435;-42
2021/09/01 10:33:51;;;;;;;4.35;2.50;;;20.70;72.80;;;;;;5155441;27;20474;-38
2021/09/01 10:36:26;;;;;;;5.45;2.67;;;20.70;72.80;;;;;;5136886;27;20066;-37
2021/09/01 10:39:12;;;;;;;8.10;3.47;;;20.70;72.70;;;;;;5152732;27;20552;-39
2021/09/01 10:41:39;;;;;;;9.25;3.55;;;20.60;72.20;;;;;;5131879;27;20042;-37
2021/09/01 10:44:11;;;;;;;10.18;4.07;;;20.60;72.20;;;;;;5122515;27;20054;-37
2021/09/01 10:46:54;;;;;;;6.68;3.10;;;20.60;72.20;;;;;;5142628;27;20121;-35
2021/09/01 10:49:24;;;;;;;7.00;3.33;;;20.60;72.20;;;;;;5155234;27;20073;-37
2021/09/01 10:52:03;;;;;;;5.40;3.10;;;20.60;72.90;;;;;;5156348;27;20383;-39
2021/09/01 10:54:33;;;;;;;7.07;4.07;;;20.60;72.30;;;;;;5152197;27;20039;-39
2021/09/01 10:57:04;;;;;;;5.03;2.80;;;20.60;72.30;;;;;;5155095;27;20042;-38
2021/09/01 10:59:36;;;;;;;4.70;3.15;;;20.60;72.30;;;;;;5155469;27;20081;-39
2021/09/01 11:02:06;;;;;;;5.90;2.90;;;20.60;72.30;;;;;;5154822;27;20453;-39
2021/09/01 11:04:32;;;;;;;6.25;3.13;;;20.70;72.30;;;;;;5154671;27;20039;-37
2021/09/01 11:07:05;;;;;;;6.50;3.28;;;20.70;72.40;;;;;;5155329;27;20096;-38
2021/09/01 11:09:31;;;;;;;4.60;3.08;;;20.60;72.30;;;;;;5154142;27;20046;-40
2021/09/01 11:11:59;;;;;;;5.28;2.65;;;20.70;72.40;;;;;;5154559;27;20054;-37
2021/09/01 11:14:30;;;;;;;4.40;2.60;;;20.70;72.40;;;;;;5154814;27;20093;-38
2021/09/01 11:16:57;;;;;;;5.70;2.67;;;20.70;72.40;;;;;;5154455;27;20407;-37
2021/09/01 11:19:23;;;;;;;4.28;2.42;;;20.70;72.40;;;;;;5154876;27;20414;-39
2021/09/01 11:21:49;;;;;;;6.20;2.90;;;20.70;72.40;;;;;;5155439;27;20129;-37
2021/09/01 11:24:17;;;;;;;7.85;2.80;;;20.70;72.40;;;;;;5139459;27;20096;-37
2021/09/01 11:26:45;;;;;;;5.93;3.33;;;20.70;72.20;;;;;;5154946;27;20043;-38
2021/09/01 11:29:11;;;;;;;6.78;3.22;;;20.70;71.90;;;;;;5136632;27;20061;-37
2021/09/01 11:31:43;;;;;;;5.10;2.70;;;20.70;71.80;;;;;;5154420;27;20475;-38
2021/09/01 11:34:13;;;;;;;5.30;2.80;;;20.70;71.70;;;;;;5154363;27;20038;-42
2021/09/01 11:36:41;;;;;;;6.35;3.00;;;20.70;71.60;;;;;;5154818;27;20039;-37
2021/09/01 11:39:07;;;;;;;9.00;3.28;;;20.60;71.50;;;;;;5154298;27;20437;-38
2021/09/01 11:41:33;;;;;;;5.60;3.00;;;20.70;71.50;;;;;;5153314;27;20081;-39
2021/09/01 11:44:03;;;;;;;6.22;3.42;;;20.60;71.40;;;;;;5154843;27;20125;-38
2021/09/01 11:46:39;;;;;;;4.70;2.38;;;20.60;71.40;;;;;;5154528;27;20057;-36
2021/09/01 11:49:14;;;;;;;5.15;2.70;;;20.60;71.40;;;;;;5155022;27;20038;-39
2021/09/01 11:51:42;;;;;;;4.60;2.55;;;20.70;71.40;;;;;;5154521;27;20050;-40
2021/09/01 11:54:09;;;;;;;6.05;2.78;;;20.60;71.40;;;;;;5154523;27;20030;-39
2021/09/01 11:56:35;;;;;;;8.57;3.50;;;20.70;71.50;;;;;;5154521;27;20049;-37
2021/09/01 11:59:07;;;;;;;5.38;2.90;;;20.70;71.40;;;;;;5135216;27;20035;-40
2021/09/01 12:01:37;;;;;;;7.60;3.10;;;20.60;71.20;;;;;;5152337;27;20498;-39
2021/09/01 12:04:03;;;;;;;9.18;3.58;;;20.60;71.10;;;;;;5150854;27;20103;-38
2021/09/01 12:06:46;;;;;;;7.53;3.47;;;20.70;71.20;;;;;;5150886;27;20410;-43
2021/09/01 12:09:14;;;;;;;4.88;3.13;;;20.60;71.20;;;;;;5151224;27;20502;-39
2021/09/01 12:11:50;;;;;;;5.60;2.80;;;20.60;71.30;;;;;;5150169;27;20062;-39
2021/09/01 12:14:25;;;;;;;7.22;3.28;;;20.70;71.40;;;;;;5150056;27;20490;-41
2021/09/01 12:16:52;;;;;;;4.93;2.55;;;20.70;71.50;;;;;;5149813;27;20046;-43
2021/09/01 12:19:20;;;;;;;6.53;2.92;;;20.70;71.50;;;;;;5150933;27;20121;-41
2021/09/01 12:21:47;;;;;;;5.35;3.00;;;20.70;71.60;;;;;;5150686;27;20121;-38
2021/09/01 12:24:36;;;;;;;9.45;3.55;;;20.70;71.60;;;;;;5150958;27;20042;-38
2021/09/01 12:27:08;;;;;;;5.55;2.60;;;20.70;71.70;;;;;;5045478;28;20981;-41
2021/09/01 12:29:49;;;;;;;3.42;2.40;;;20.70;71.80;;;;;;5045834;28;20052;-39
2021/09/01 12:32:17;;;;;;;5.35;2.97;;;20.70;71.80;;;;;;5046106;28;20060;-39
2021/09/01 12:34:45;;;;;;;4.10;2.53;;;20.70;71.80;;;;;;5046548;28;20045;-38
2021/09/01 12:37:25;;;;;;;6.07;2.80;;;20.70;71.80;;;;;;5026405;28;20049;-42
2021/09/01 12:39:56;;;;;;;5.05;2.60;;;20.70;71.90;;;;;;5039601;28;20044;-43
2021/09/01 12:42:32;;;;;;;3.72;2.60;;;20.70;71.90;;;;;;5045860;28;20405;-38
2021/09/01 12:45:01;;;;;;;3.88;2.60;;;20.70;72.00;;;;;;5045214;28;20055;-37
2021/09/01 12:47:28;;;;;;;5.22;2.67;;;20.70;72.00;;;;;;5044819;28;20818;-43
2021/09/01 12:49:55;;;;;;;4.80;2.65;;;20.70;72.00;;;;;;5028886;28;20056;-38